Time;durP1;ratioP1;P1;durP2;ratioP2;P2;SDS_P1;SDS_P2;PMS_P1;PMS_P2;Temp;Humidity;BMP_temperature;BMP_pressure;BME280_temperature;BME280_humidity;BME280_pressure;Samples;Min_cycle;Max_cycle;Signal;HPM_P1;HPM_P2
2021/05/14 00:02:00;;;;;;;3.20;1.70;;;;;;;19.50;71.26;96621.25;5004889;28;20512;-66
2021/05/14 00:04:26;;;;;;;1.63;1.47;;;;;;;19.52;71.66;96622.16;4989017;28;20280;-66
2021/05/14 00:06:53;;;;;;;1.90;1.80;;;;;;;19.43;71.66;96606.66;5007426;28;20210;-67
2021/05/14 00:09:20;;;;;;;2.07;1.70;;;;;;;19.50;71.77;96624.66;4987851;28;20266;-67
2021/05/14 00:11:46;;;;;;;1.83;1.63;;;;;;;19.44;71.27;96616.00;5007899;28;20203;-65
2021/05/14 00:14:13;;;;;;;1.80;1.70;;;;;;;19.34;71.81;96599.69;4972761;28;20789;-66
2021/05/14 00:16:40;;;;;;;1.60;1.50;;;;;;;19.36;71.61;96603.09;4989971;28;20667;-68
2021/05/14 00:19:07;;;;;;;1.90;1.50;;;;;;;19.29;72.07;96608.00;4976482;28;20581;-66
2021/05/14 00:21:33;;;;;;;1.77;1.67;;;;;;;19.31;71.68;96591.09;4989943;28;20241;-66
2021/05/14 00:24:00;;;;;;;1.70;1.50;;;;;;;19.50;71.89;96618.69;4975944;28;20257;-67
2021/05/14 00:26:27;;;;;;;1.73;1.63;;;;;;;19.49;71.64;96622.09;4988995;28;20249;-66
2021/05/14 00:28:54;;;;;;;1.67;1.57;;;;;;;19.35;71.75;96597.97;4990225;28;20206;-66
2021/05/14 00:31:20;;;;;;;1.50;1.40;;;;;;;19.35;71.41;96588.66;5007094;28;20230;-66
2021/05/14 00:33:47;;;;;;;1.70;1.60;;;;;;;19.48;71.66;96616.13;4958001;28;20207;-67
2021/05/14 00:36:14;;;;;;;2.40;1.63;;;;;;;19.50;71.61;96613.59;4988129;28;20265;-67
2021/05/14 00:38:40;;;;;;;1.47;1.37;;;;;;;19.30;71.77;96582.56;5006264;28;20234;-67
2021/05/14 00:41:07;;;;;;;1.70;1.60;;;;;;;19.49;71.94;96612.75;4973901;28;20360;-66
2021/05/14 00:43:33;;;;;;;1.73;1.63;;;;;;;19.48;71.67;96616.13;5006613;28;20744;-67
2021/05/14 00:46:03;;;;;;;2.27;1.60;;;;;;;19.51;71.72;96612.81;4989632;28;20258;-67
2021/05/14 00:48:30;;;;;;;1.60;1.50;;;;;;;19.50;71.71;96618.69;4984488;28;20202;-66
2021/05/14 00:50:56;;;;;;;1.60;1.50;;;;;;;19.50;72.18;96619.56;5010522;28;20198;-66
2021/05/14 00:53:23;;;;;;;2.20;1.60;;;;;;;19.35;71.75;96595.41;4989688;28;20257;-66
2021/05/14 00:55:50;;;;;;;1.60;1.50;;;;;;;19.35;71.89;96595.41;4974413;28;20258;-68
2021/05/14 00:58:16;;;;;;;1.60;1.50;;;;;;;19.35;71.80;96591.19;4982466;28;20213;-67
2021/05/14 01:00:43;;;;;;;1.80;1.60;;;;;;;18.93;71.77;96523.09;4987611;28;20267;-67
2021/05/14 01:03:14;;;;;;;1.30;1.20;;;;;;;19.10;71.70;96550.66;4989674;28;20260;-67
2021/05/14 01:05:42;;;;;;;2.33;1.83;;;;;;;19.35;71.63;96591.19;4987022;28;20229;-67
2021/05/14 01:08:10;;;;;;;2.10;1.63;;;;;;;19.31;71.81;96588.53;4973044;28;20664;-68
2021/05/14 01:10:37;;;;;;;2.07;1.60;;;;;;;19.41;71.88;96604.06;4975814;28;20248;-68
2021/05/14 01:13:03;;;;;;;1.50;1.40;;;;;;;19.11;71.76;96556.63;4973360;28;20206;-68
2021/05/14 01:15:30;;;;;;;1.60;1.50;;;;;;;18.91;71.70;96523.03;4956782;28;20254;-66
2021/05/14 01:17:57;;;;;;;1.60;1.50;;;;;;;19.34;71.64;96591.16;4974042;28;20202;-67
2021/05/14 01:20:29;;;;;;;1.53;1.43;;;;;;;19.35;71.59;96595.41;4985357;28;20214;-67
2021/05/14 01:22:56;;;;;;;1.60;1.50;;;;;;;19.35;71.26;96592.88;4987677;28;20297;-67
2021/05/14 01:25:23;;;;;;;1.50;1.40;;;;;;;19.34;71.60;96588.63;4987050;28;20555;-66
2021/05/14 01:27:49;;;;;;;2.47;1.50;;;;;;;17.82;71.41;96333.81;4985783;28;20202;-67
2021/05/14 01:30:17;;;;;;;1.50;1.40;;;;;;;17.84;71.55;96338.94;5003853;28;20203;-67
2021/05/14 01:32:44;;;;;;;1.67;1.57;;;;;;;19.49;71.68;96619.53;5006557;28;20276;-66
2021/05/14 01:35:11;;;;;;;1.70;1.60;;;;;;;19.33;71.61;96592.00;4988539;28;20673;-67
2021/05/14 01:37:39;;;;;;;1.60;1.50;;;;;;;19.48;71.83;96616.13;4984149;28;20272;-67
2021/05/14 01:40:07;;;;;;;1.53;1.43;;;;;;;19.45;71.86;96610.13;5002135;28;20556;-68
2021/05/14 01:42:33;;;;;;;1.40;1.30;;;;;;;19.47;72.01;96616.97;5006588;28;20218;-67
2021/05/14 01:45:00;;;;;;;1.50;1.40;;;;;;;19.20;71.57;96572.09;4991050;28;20246;-66
2021/05/14 01:47:26;;;;;;;1.43;1.37;;;;;;;19.44;71.88;96608.38;4984673;28;20210;-68
2021/05/14 01:49:53;;;;;;;1.60;1.50;;;;;;;19.41;72.08;96606.63;4988601;28;20264;-65
2021/05/14 01:52:20;;;;;;;1.40;1.30;;;;;;;18.74;71.75;96491.22;5006418;28;20230;-67
2021/05/14 01:54:46;;;;;;;1.50;1.40;;;;;;;18.89;71.74;96516.22;5004752;28;20261;-67
2021/05/14 01:57:13;;;;;;;1.60;1.37;;;;;;;19.27;71.83;96577.41;4984228;28;20234;-67
2021/05/14 01:59:40;;;;;;;1.60;1.50;;;;;;;18.90;71.66;96510.28;4986127;28;20210;-67
2021/05/14 02:02:06;;;;;;;1.30;1.20;;;;;;;19.32;71.77;96588.59;4979673;28;20701;-68
2021/05/14 02:04:33;;;;;;;1.70;1.60;;;;;;;19.49;71.75;96617.88;5007220;28;20230;-66
2021/05/14 02:07:03;;;;;;;1.50;1.40;;;;;;;19.37;72.15;96617.59;4985134;28;20234;-67
2021/05/14 02:09:30;;;;;;;1.80;1.40;;;;;;;19.47;71.84;96618.63;4988290;28;20230;-68
2021/05/14 02:11:56;;;;;;;1.60;1.50;;;;;;;18.91;71.85;96527.28;5006294;28;20240;-67
2021/05/14 02:14:24;;;;;;;1.60;1.50;;;;;;;17.92;71.24;96368.78;4988515;28;20229;-67
2021/05/14 02:16:51;;;;;;;1.47;1.37;;;;;;;19.07;71.45;96549.75;4988022;28;20258;-67
2021/05/14 02:19:17;;;;;;;1.73;1.63;;;;;;;19.34;71.64;96596.25;4992384;28;20198;-67
2021/05/14 02:21:44;;;;;;;1.50;1.40;;;;;;;19.33;71.55;96592.84;4988947;28;20663;-67
2021/05/14 02:24:11;;;;;;;1.50;1.40;;;;;;;18.81;71.55;96499.88;4993031;28;20240;-67
2021/05/14 02:26:37;;;;;;;1.53;1.43;;;;;;;19.49;72.00;96622.09;4986303;28;20198;-67
2021/05/14 02:29:04;;;;;;;1.40;1.30;;;;;;;17.95;71.09;96366.31;5009268;28;20262;-67
2021/05/14 02:31:30;;;;;;;1.50;1.40;;;;;;;19.39;71.67;96615.91;4964197;28;20233;-68
2021/05/14 02:33:57;;;;;;;1.57;1.40;;;;;;;19.47;71.81;96627.16;4989872;28;20285;-66
2021/05/14 02:36:24;;;;;;;1.53;1.43;;;;;;;18.98;71.63;96539.34;5007904;28;20288;-67
2021/05/14 02:38:51;;;;;;;1.70;1.60;;;;;;;17.98;71.17;96379.16;4987070;28;20625;-66
2021/05/14 02:41:18;;;;;;;1.60;1.50;;;;;;;19.40;71.39;96612.56;4992067;28;20292;-69
2021/05/14 02:43:44;;;;;;;1.73;1.60;;;;;;;19.46;71.59;96620.34;4975663;28;20233;-67
2021/05/14 02:46:11;;;;;;;1.60;1.50;;;;;;;19.47;71.55;96623.72;5008476;28;20292;-65
2021/05/14 02:48:37;;;;;;;1.30;1.20;;;;;;;19.33;71.53;96604.72;5005313;28;20209;-67
2021/05/14 02:51:07;;;;;;;1.73;1.63;;;;;;;19.46;71.43;96622.00;4991224;28;20198;-67
2021/05/14 02:53:34;;;;;;;1.70;1.50;;;;;;;19.46;71.66;96627.97;4991562;28;20242;-68
2021/05/14 02:56:00;;;;;;;1.50;1.40;;;;;;;19.46;71.25;96622.88;4972820;28;20721;-67
2021/05/14 02:58:27;;;;;;;1.57;1.47;;;;;;;19.26;71.95;96587.53;5006053;28;20261;-67
2021/05/14 03:00:53;;;;;;;1.40;1.30;;;;;;;19.32;71.77;96595.34;4991199;28;20210;-66
2021/05/14 03:03:20;;;;;;;1.50;1.40;;;;;;;19.46;71.66;96622.00;4991104;28;20293;-66
2021/05/14 03:05:47;;;;;;;1.47;1.33;;;;;;;19.46;71.77;96627.09;5006481;28;20785;-67
2021/05/14 03:08:14;;;;;;;1.17;1.10;;;;;;;19.37;71.68;96612.47;5004519;28;20304;-66
2021/05/14 03:10:40;;;;;;;1.57;1.47;;;;;;;19.38;71.98;96604.00;5008461;28;20202;-66
2021/05/14 03:13:07;;;;;;;1.50;1.40;;;;;;;19.31;71.37;96593.63;5008263;28;20206;-66
2021/05/14 03:15:33;;;;;;;1.20;1.10;;;;;;;19.33;71.54;96599.63;4990413;28;20289;-65
2021/05/14 03:18:00;;;;;;;1.50;1.40;;;;;;;19.45;71.74;96616.03;4989618;28;20206;-67
2021/05/14 03:20:27;;;;;;;1.50;1.40;;;;;;;19.31;71.60;96594.50;4990670;28;20218;-66
2021/05/14 03:22:53;;;;;;;1.40;1.30;;;;;;;19.45;72.25;96623.69;4992475;28;20621;-67
2021/05/14 03:25:20;;;;;;;1.40;1.30;;;;;;;19.46;71.94;96627.97;5007826;28;20727;-67
2021/05/14 03:27:47;;;;;;;1.40;1.30;;;;;;;19.46;71.69;96627.09;4988763;28;20589;-67
2021/05/14 03:30:14;;;;;;;2.53;1.40;;;;;;;19.42;71.73;96622.78;4974786;28;20214;-65
2021/05/14 03:32:40;;;;;;;1.73;1.30;;;;;;;17.91;71.25;96368.75;5007072;28;20632;-67
2021/05/14 03:35:07;;;;;;;1.40;1.30;;;;;;;19.43;71.69;96630.47;4990484;28;20230;-67
2021/05/14 03:37:34;;;;;;;1.50;1.40;;;;;;;18.70;71.58;96532.72;5006836;28;20202;-66
2021/05/14 03:40:13;;;;;;;1.50;1.40;;;;;;;18.88;71.61;96539.94;4990568;28;20202;-67
2021/05/14 03:42:40;;;;;;;2.13;1.33;;;;;;;19.39;71.90;96621.00;4969809;28;20257;-67
2021/05/14 03:45:08;;;;;;;1.40;1.30;;;;;;;19.39;71.55;96625.25;4973070;28;20582;-67
2021/05/14 03:47:36;;;;;;;1.17;1.17;;;;;;;19.30;71.56;96610.59;4989214;28;20641;-68
2021/05/14 03:50:03;;;;;;;1.43;1.30;;;;;;;18.91;71.65;96540.88;4989872;28;20245;-66
2021/05/14 03:52:33;;;;;;;1.40;1.30;;;;;;;19.26;71.92;96603.69;4990720;28;20202;-67
2021/05/14 03:55:00;;;;;;;1.23;1.13;;;;;;;18.93;71.54;96554.50;4988526;28;20281;-66
2021/05/14 03:57:27;;;;;;;1.30;1.20;;;;;;;19.45;71.59;96646.63;4989137;28;20809;-67
2021/05/14 03:59:53;;;;;;;1.40;1.30;;;;;;;19.40;71.88;96638.03;4990590;28;20233;-65
2021/05/14 04:02:20;;;;;;;1.10;1.10;;;;;;;19.45;71.41;96641.53;4989993;28;20236;-67
2021/05/14 04:04:47;;;;;;;1.40;1.30;;;;;;;19.41;71.87;96639.75;4988063;28;20607;-67
2021/05/14 04:07:13;;;;;;;1.43;1.33;;;;;;;19.44;72.24;96650.00;5006492;28;20260;-66
2021/05/14 04:09:47;;;;;;;1.50;1.40;;;;;;;19.36;71.64;96630.28;4990469;28;20422;-65
2021/05/14 04:14:59;;;;;;;1.40;1.30;;;;;;;19.30;71.67;96627.59;5007003;28;20218;-67
2021/05/14 04:17:28;;;;;;;2.53;1.50;;;;;;;19.45;71.66;96650.88;4989825;28;20238;-67
2021/05/14 04:19:55;;;;;;;1.73;1.43;;;;;;;18.87;71.52;96550.94;4973815;28;20855;-66
2021/05/14 04:22:22;;;;;;;1.80;1.40;;;;;;;19.23;71.55;96606.16;4974554;28;20608;-67
2021/05/14 04:24:48;;;;;;;1.40;1.30;;;;;;;19.43;71.83;96650.84;5007222;28;20743;-67
2021/05/14 04:27:15;;;;;;;1.50;1.40;;;;;;;19.30;71.63;96630.97;5006981;28;20198;-67
2021/05/14 04:29:42;;;;;;;1.10;1.10;;;;;;;19.45;71.63;96644.06;4989830;28;20601;-67
2021/05/14 04:32:09;;;;;;;1.33;1.23;;;;;;;19.21;71.71;96596.75;4989228;28;20680;-67
2021/05/14 04:34:35;;;;;;;1.30;1.20;;;;;;;18.88;71.58;96539.94;4989801;28;20218;-66
2021/05/14 04:37:04;;;;;;;1.43;1.33;;;;;;;19.45;71.54;96641.53;4987954;28;20317;-67
2021/05/14 04:39:31;;;;;;;1.50;1.40;;;;;;;19.22;71.69;96599.31;4989392;28;20257;-67
2021/05/14 04:41:58;;;;;;;1.40;1.30;;;;;;;18.49;71.64;96483.84;4968026;28;20206;-67
2021/05/14 04:44:26;;;;;;;1.37;1.27;;;;;;;19.27;71.75;96615.63;4989026;28;20229;-66
2021/05/14 04:46:53;;;;;;;1.17;1.17;;;;;;;19.30;71.58;96617.41;4978457;28;20651;-67
2021/05/14 04:49:20;;;;;;;1.10;1.10;;;;;;;17.91;71.79;96410.28;4989401;28;20209;-67
2021/05/14 04:51:47;;;;;;;1.30;1.20;;;;;;;19.46;71.84;96650.03;4989387;28;20206;-67
2021/05/14 04:54:13;;;;;;;1.50;1.40;;;;;;;19.46;71.27;96647.50;5005478;28;20207;-66
2021/05/14 04:56:40;;;;;;;1.60;1.37;;;;;;;19.45;71.78;96640.69;4987826;28;20249;-67
2021/05/14 04:59:06;;;;;;;1.40;1.30;;;;;;;19.46;71.59;96648.38;5006416;28;20198;-66
2021/05/14 05:01:33;;;;;;;1.23;1.20;;;;;;;19.11;71.54;96585.50;4988944;28;20257;-66
2021/05/14 05:03:59;;;;;;;1.50;1.40;;;;;;;18.90;71.31;96544.25;4961770;28;20202;-66
2021/05/14 05:06:26;;;;;;;1.40;1.30;;;;;;;19.29;71.37;96613.09;4983183;28;20265;-68
2021/05/14 05:08:53;;;;;;;1.43;1.33;;;;;;;19.46;71.04;96647.50;4964888;28;20264;-67
2021/05/14 05:11:19;;;;;;;1.40;1.30;;;;;;;19.45;71.50;96645.78;4988584;28;20285;-67
2021/05/14 05:13:46;;;;;;;1.37;1.27;;;;;;;19.43;71.36;96648.28;4987721;28;20293;-67
2021/05/14 05:16:12;;;;;;;1.57;1.47;;;;;;;19.24;71.35;96614.63;4972406;28;21037;-67
2021/05/14 05:18:39;;;;;;;1.37;1.27;;;;;;;19.47;71.28;96654.31;4989196;28;20209;-67
2021/05/14 05:21:06;;;;;;;1.50;1.40;;;;;;;19.47;71.56;96657.72;5006414;28;20202;-67
2021/05/14 05:23:33;;;;;;;1.53;1.43;;;;;;;19.46;71.42;96648.38;5004585;28;20545;-67
2021/05/14 05:25:59;;;;;;;1.57;1.47;;;;;;;18.88;71.31;96552.66;5006746;28;20304;-69
2021/05/14 05:28:27;;;;;;;1.40;1.30;;;;;;;18.91;71.31;96561.22;4988581;28;20218;-67
2021/05/14 05:30:53;;;;;;;1.97;1.60;;;;;;;19.21;71.43;96612.03;4974743;28;20242;-67
2021/05/14 05:33:23;;;;;;;1.40;1.30;;;;;;;18.81;71.85;96544.03;4989122;28;20217;-69
2021/05/14 05:35:50;;;;;;;1.40;1.30;;;;;;;18.93;71.37;96569.78;4987986;28;20309;-68
2021/05/14 05:38:21;;;;;;;1.27;1.20;;;;;;;19.01;71.23;96581.00;4986412;28;20256;-67
2021/05/14 05:40:48;;;;;;;1.47;1.37;;;;;;;19.40;71.33;96647.34;4973587;28;20207;-67
2021/05/14 05:43:15;;;;;;;1.40;1.30;;;;;;;19.25;71.25;96626.56;4972209;28;20206;-67
2021/05/14 05:45:42;;;;;;;1.40;1.30;;;;;;;18.78;71.17;96543.09;4985195;28;20276;-65
2021/05/14 05:48:09;;;;;;;1.27;1.20;;;;;;;19.46;71.31;96662.78;4964037;28;20472;-67
2021/05/14 05:50:39;;;;;;;1.63;1.50;;;;;;;19.33;71.06;96637.84;5002375;28;20206;-67
2021/05/14 05:53:08;;;;;;;1.20;1.20;;;;;;;19.34;71.00;96639.56;4985042;28;20560;-67
2021/05/14 05:55:34;;;;;;;1.20;1.20;;;;;;;18.49;70.82;96494.03;4975990;28;20270;-66
2021/05/14 05:58:08;;;;;;;2.07;1.40;;;;;;;19.35;71.13;96648.91;4991783;28;20256;-67
2021/05/14 06:00:34;;;;;;;1.50;1.40;;;;;;;19.49;70.90;96666.28;4992433;28;20643;-66
2021/05/14 06:03:02;;;;;;;1.57;1.40;;;;;;;19.50;70.87;96674.75;4976639;28;20202;-66
2021/05/14 06:05:29;;;;;;;1.43;1.33;;;;;;;19.36;70.85;96655.75;5009049;28;20230;-67
2021/05/14 06:07:56;;;;;;;1.20;1.20;;;;;;;19.50;71.16;96683.28;4992774;28;20264;-68
2021/05/14 06:10:22;;;;;;;1.53;1.43;;;;;;;18.95;70.97;96585.09;5009313;28;20213;-65
2021/05/14 06:12:49;;;;;;;1.30;1.20;;;;;;;19.36;70.92;96655.75;4992302;28;20896;-66
2021/05/14 06:15:16;;;;;;;1.40;1.30;;;;;;;19.51;70.68;96677.34;4991657;28;20254;-66
2021/05/14 06:17:43;;;;;;;1.40;1.30;;;;;;;19.49;70.62;96683.25;4975505;28;20253;-67
2021/05/14 06:20:12;;;;;;;1.63;1.53;;;;;;;18.95;70.86;96588.47;4992355;28;20245;-66
2021/05/14 06:22:39;;;;;;;1.40;1.30;;;;;;;19.00;70.21;96596.22;4992177;28;20273;-66
2021/05/14 06:25:06;;;;;;;1.23;1.17;;;;;;;19.37;70.88;96658.34;4990859;28;20233;-67
2021/05/14 06:27:33;;;;;;;1.33;1.23;;;;;;;19.50;70.78;96682.41;4990721;28;20209;-67
2021/05/14 06:29:59;;;;;;;1.53;1.43;;;;;;;19.51;71.11;96685.00;5008397;28;20206;-68
2021/05/14 06:32:26;;;;;;;1.30;1.23;;;;;;;19.54;71.41;96684.22;5009160;28;20586;-67
2021/05/14 06:34:53;;;;;;;1.40;1.30;;;;;;;19.40;70.27;96660.09;4992257;28;20226;-66
2021/05/14 06:37:20;;;;;;;1.30;1.20;;;;;;;19.55;70.65;96679.16;4975206;28;20311;-66
2021/05/14 06:39:48;;;;;;;1.20;1.10;;;;;;;19.57;71.07;96691.94;4986308;28;20262;-66
2021/05/14 06:42:14;;;;;;;1.40;1.30;;;;;;;19.44;70.83;96666.97;5009009;28;20206;-67
2021/05/14 06:44:41;;;;;;;2.67;1.10;;;;;;;19.56;70.76;96685.09;4975408;28;20659;-66
2021/05/14 06:47:08;;;;;;;1.50;1.40;;;;;;;17.93;70.17;96418.81;4991478;28;20202;-68
2021/05/14 06:49:35;;;;;;;1.50;1.40;;;;;;;19.44;70.61;96664.41;5007650;28;20206;-67
2021/05/14 06:52:01;;;;;;;1.30;1.20;;;;;;;19.37;70.54;96658.34;4990164;28;20202;-66
2021/05/14 06:54:28;;;;;;;1.43;1.33;;;;;;;19.62;70.25;96703.97;5007339;28;20296;-67
2021/05/14 06:56:55;;;;;;;2.27;1.40;;;;;;;19.57;70.49;96689.41;4991023;28;20269;-68
2021/05/14 06:59:21;;;;;;;1.40;1.30;;;;;;;19.51;70.43;96682.44;4975593;28;20206;-68
2021/05/14 07:01:48;;;;;;;1.30;1.20;;;;;;;19.05;70.26;96603.19;4958263;28;20233;-67
2021/05/14 07:04:15;;;;;;;1.40;1.30;;;;;;;19.56;70.26;96695.28;4990977;28;20206;-66
2021/05/14 07:06:42;;;;;;;1.30;1.20;;;;;;;19.53;70.31;96683.34;5008444;28;20230;-67
2021/05/14 07:09:08;;;;;;;1.93;1.43;;;;;;;19.05;70.33;96603.19;5007720;28;20210;-66
2021/05/14 07:11:42;;;;;;;1.70;1.60;;;;;;;19.68;70.34;96709.19;4987131;28;20293;-66
2021/05/14 07:14:09;;;;;;;2.20;1.50;;;;;;;18.17;70.24;96462.66;4992876;28;20206;-66
2021/05/14 07:16:35;;;;;;;3.53;1.90;;;;;;;19.40;70.05;96655.00;5002836;28;20250;-66
2021/05/14 07:19:03;;;;;;;1.80;1.70;;;;;;;19.63;69.80;96694.63;4989744;28;20202;-66
2021/05/14 07:21:31;;;;;;;3.83;2.10;;;;;;;19.56;70.34;96682.56;4975946;28;20206;-67
2021/05/14 07:23:58;;;;;;;4.13;1.90;;;;;;;19.57;73.94;96687.69;4976440;28;20207;-68
2021/05/14 07:26:26;;;;;;;3.37;2.10;;;;;;;19.57;76.75;96686.84;4990546;28;20299;-67
2021/05/14 07:28:57;;;;;;;3.57;1.90;;;;;;;19.49;77.08;96675.59;4990691;28;20206;-67
2021/05/14 07:31:24;;;;;;;3.63;1.80;;;;;;;19.66;75.89;96702.34;4990831;28;20237;-66
2021/05/14 07:33:52;;;;;;;2.33;1.80;;;;;;;19.69;74.55;96705.81;4974019;28;20213;-68
2021/05/14 07:36:18;;;;;;;3.00;2.00;;;;;;;19.56;73.20;96685.09;4990539;28;20225;-67
2021/05/14 07:38:45;;;;;;;2.10;1.90;;;;;;;19.29;71.44;96639.47;4993105;28;20297;-68
2021/05/14 07:41:12;;;;;;;1.93;1.80;;;;;;;19.52;68.28;96685.88;4989625;28;20633;-68
2021/05/14 07:43:38;;;;;;;1.80;1.70;;;;;;;19.51;67.58;96677.34;4988964;28;20202;-67
2021/05/14 07:46:05;;;;;;;1.70;1.60;;;;;;;19.17;66.40;96625.53;4990743;28;20253;-67
2021/05/14 07:48:32;;;;;;;4.03;1.87;;;;;;;19.54;65.25;96692.72;4987797;28;20217;-68
2021/05/14 07:50:58;;;;;;;3.83;1.70;;;;;;;19.36;65.11;96666.78;4988172;28;20675;-68
2021/05/14 07:53:25;;;;;;;2.87;2.03;;;;;;;19.58;66.13;96707.28;4990172;28;20288;-66
2021/05/14 07:55:51;;;;;;;2.50;1.90;;;;;;;19.57;65.45;96708.06;4989625;28;20281;-67
2021/05/14 07:58:20;;;;;;;3.97;1.87;;;;;;;19.41;64.95;96682.19;4989515;28;21100;-68
2021/05/14 08:00:49;;;;;;;2.73;1.60;;;;;;;19.38;64.88;96680.44;4986909;28;20364;-67
2021/05/14 08:03:16;;;;;;;2.33;1.60;;;;;;;19.51;65.02;96707.94;4980291;28;20233;-66
2021/05/14 08:05:46;;;;;;;3.90;1.77;;;;;;;18.75;64.40;96582.06;5040156;22;20252;-66
2021/05/14 08:08:15;;;;;;;4.97;1.77;;;;;;;19.26;64.22;96675.00;5009438;28;20422;-67
2021/05/14 08:10:42;;;;;;;2.43;1.97;;;;;;;19.46;64.12;96706.97;5013437;28;20206;-67
2021/05/14 08:13:21;;;;;;;1.50;1.40;;;;;;;19.45;63.90;96706.94;5027037;28;20205;-67
2021/05/14 08:15:47;;;;;;;1.93;1.70;;;;;;;19.45;63.90;96702.69;5026872;28;20217;-67
2021/05/14 08:18:14;;;;;;;2.60;1.60;;;;;;;19.44;64.07;96697.53;4977921;28;20222;-66
2021/05/14 08:20:41;;;;;;;2.20;1.80;;;;;;;19.43;64.32;96698.38;5005790;28;20237;-67
2021/05/14 08:23:09;;;;;;;2.87;1.57;;;;;;;19.41;63.45;96703.44;5007480;28;20206;-66
2021/05/14 08:25:36;;;;;;;2.83;1.60;;;;;;;19.41;63.39;96703.44;4984964;28;20276;-67
2021/05/14 08:28:03;;;;;;;2.33;1.77;;;;;;;19.42;63.43;96701.78;5007245;28;20195;-67
2021/05/14 08:30:30;;;;;;;3.50;1.90;;;;;;;19.42;63.91;96711.97;4981398;28;20206;-67
2021/05/14 08:32:57;;;;;;;2.80;1.63;;;;;;;19.43;64.22;96717.09;5003784;28;20754;-67
2021/05/14 08:35:23;;;;;;;3.67;1.80;;;;;;;19.43;64.63;96711.13;4998377;28;20313;-67
2021/05/14 08:37:50;;;;;;;4.80;1.87;;;;;;;19.43;65.09;96709.44;5009652;28;20308;-67
2021/05/14 08:40:17;;;;;;;3.47;1.80;;;;;;;19.45;64.95;96709.47;5006843;28;20636;-67
2021/05/14 08:42:44;;;;;;;1.73;1.40;;;;;;;19.46;65.08;96708.66;5008619;28;20233;-66
2021/05/14 08:45:12;;;;;;;1.80;1.70;;;;;;;19.46;65.30;96701.88;5006772;28;20279;-67
2021/05/14 08:47:42;;;;;;;2.07;1.67;;;;;;;19.47;65.49;96710.38;5008174;28;20206;-67
2021/05/14 08:50:13;;;;;;;1.57;1.40;;;;;;;19.49;65.46;96712.16;4988169;28;20675;-67
2021/05/14 08:52:41;;;;;;;2.33;1.40;;;;;;;19.51;65.57;96717.28;4990780;28;20621;-67
2021/05/14 08:55:09;;;;;;;2.43;1.40;;;;;;;19.51;65.43;96715.56;5002645;28;20290;-67
2021/05/14 08:57:37;;;;;;;1.70;1.53;;;;;;;19.52;65.67;96712.22;5004327;28;20226;-67
2021/05/14 09:00:04;;;;;;;2.87;1.50;;;;;;;19.54;64.92;96714.81;5005538;28;20261;-67
2021/05/14 09:02:34;;;;;;;1.90;1.47;;;;;;;19.56;65.03;96715.69;5006094;28;20298;-67
2021/05/14 09:05:20;;;;;;;1.53;1.43;;;;;;;19.56;64.87;96710.59;5003752;28;20260;-67
2021/05/14 09:07:46;;;;;;;1.97;1.50;;;;;;;19.57;64.58;96712.34;5001638;28;20246;-67
2021/05/14 09:10:15;;;;;;;1.50;1.30;;;;;;;19.58;64.37;96721.69;4991424;28;20238;-67
2021/05/14 09:12:42;;;;;;;1.53;1.30;;;;;;;19.41;64.33;96682.19;5007153;28;20234;-67
2021/05/14 09:15:22;;;;;;;1.50;1.30;;;;;;;19.58;63.60;96707.28;4985193;28;20241;-67
2021/05/14 09:18:09;;;;;;;1.63;1.37;;;;;;;19.59;63.68;96703.00;5004530;28;20255;-67
2021/05/14 09:20:44;;;;;;;2.23;1.50;;;;;;;19.46;63.50;96675.53;5000899;28;20256;-67
2021/05/14 09:23:20;;;;;;;1.40;1.30;;;;;;;19.59;63.27;96705.56;4989629;28;20591;-68
2021/05/14 09:25:49;;;;;;;2.13;1.40;;;;;;;19.60;62.91;96700.50;5012347;28;22208;-67
2021/05/14 09:28:29;;;;;;;2.60;1.30;;;;;;;19.61;62.85;96709.88;5007628;28;20238;-67
2021/05/14 09:31:05;;;;;;;1.67;1.47;;;;;;;19.60;62.51;96697.13;5010445;28;20205;-68
2021/05/14 09:33:32;;;;;;;1.60;1.30;;;;;;;19.61;62.32;96699.69;5007141;28;20821;-67
2021/05/14 09:36:00;;;;;;;1.63;1.20;;;;;;;19.61;61.91;96703.91;5011375;28;20302;-66
2021/05/14 09:38:27;;;;;;;2.80;1.50;;;;;;;19.61;62.11;96699.69;5010902;28;20317;-67
2021/05/14 09:40:54;;;;;;;1.50;1.40;;;;;;;19.62;62.01;96693.75;5008143;28;20210;-67
2021/05/14 09:43:24;;;;;;;4.97;1.50;;;;;;;19.63;62.39;96699.72;4991165;28;20726;-67
2021/05/14 09:45:51;;;;;;;2.37;1.30;;;;;;;19.63;62.01;96694.63;4987063;28;20222;-67
2021/05/14 09:48:26;;;;;;;11.57;1.57;;;;;;;19.64;62.09;96698.91;5003163;28;20199;-67
2021/05/14 09:50:53;;;;;;;4.23;1.40;;;;;;;19.63;61.64;96692.94;5003017;28;20721;-67
2021/05/14 09:53:21;;;;;;;2.17;1.43;;;;;;;19.63;61.86;96692.09;5002680;28;20291;-67
2021/05/14 09:55:53;;;;;;;11.70;1.80;;;;;;;19.64;61.35;96694.66;5010288;28;20252;-66
2021/05/14 09:58:25;;;;;;;2.60;1.57;;;;;;;19.63;60.06;96703.13;4992907;28;20257;-66
2021/05/14 10:00:55;;;;;;;3.20;1.20;;;;;;;19.64;59.83;96702.31;4981867;28;20206;-66
2021/05/14 10:03:24;;;;;;;1.87;1.40;;;;;;;19.63;59.44;96690.38;5004542;28;20210;-66
2021/05/14 10:05:52;;;;;;;1.50;1.40;;;;;;;19.62;59.50;96696.31;5005941;28;20495;-66
2021/05/14 10:08:23;;;;;;;3.17;1.33;;;;;;;19.63;60.20;96697.19;4990873;28;20203;-67
2021/05/14 10:10:50;;;;;;;1.27;1.17;;;;;;;19.48;60.39;96677.28;5005413;28;20210;-67
2021/05/14 10:13:17;;;;;;;2.83;1.40;;;;;;;19.63;60.64;96687.00;4993592;28;20242;-67
2021/05/14 10:15:43;;;;;;;2.47;1.40;;;;;;;19.63;61.58;96690.38;4996344;28;20308;-66
2021/05/14 10:18:17;;;;;;;2.10;1.40;;;;;;;19.64;61.57;96684.47;5005569;28;20320;-66
2021/05/14 10:20:43;;;;;;;2.10;1.50;;;;;;;19.64;62.29;96679.38;5005019;28;20225;-66
2021/05/14 10:23:11;;;;;;;2.53;1.30;;;;;;;19.63;62.40;96685.28;4986340;28;20203;-66
2021/05/14 10:25:38;;;;;;;1.67;1.10;;;;;;;19.64;62.37;96681.06;4996580;28;20278;-66
2021/05/14 10:28:14;;;;;;;3.30;1.40;;;;;;;19.63;62.44;96677.63;5004337;28;20639;-66
2021/05/14 10:31:05;;;;;;;2.43;1.40;;;;;;;19.64;62.82;96675.97;5008131;28;20209;-67
2021/05/14 10:33:51;;;;;;;1.60;1.40;;;;;;;19.63;63.33;96672.53;5001560;28;20214;-66
2021/05/14 10:36:21;;;;;;;1.83;1.40;;;;;;;19.63;63.45;96675.09;5007248;28;20253;-66
2021/05/14 10:39:10;;;;;;;2.63;1.43;;;;;;;19.63;63.92;96672.53;5005054;28;20606;-66
2021/05/14 10:41:47;;;;;;;1.50;1.40;;;;;;;19.64;64.01;96670.84;5014184;28;20292;-67
2021/05/14 10:44:15;;;;;;;2.97;1.70;;;;;;;19.64;64.08;96670.84;4985540;28;20245;-66
2021/05/14 10:46:42;;;;;;;2.47;1.50;;;;;;;19.63;64.08;96672.53;5006426;28;20222;-66
2021/05/14 10:49:12;;;;;;;2.03;1.40;;;;;;;19.61;64.07;96671.66;5007196;28;20206;-66
2021/05/14 10:51:51;;;;;;;2.93;1.67;;;;;;;19.62;63.29;96670.81;4984194;28;20234;-67
2021/05/14 10:54:43;;;;;;;2.90;1.73;;;;;;;19.61;62.75;96661.47;4993596;28;20619;-66
2021/05/14 10:57:10;;;;;;;2.30;1.40;;;;;;;19.62;62.48;96669.94;4994420;28;20281;-67
2021/05/14 10:59:38;;;;;;;1.77;1.47;;;;;;;19.60;62.80;96662.28;4975188;28;20284;-67
2021/05/14 11:02:42;;;;;;;1.60;1.50;;;;;;;19.60;63.13;96659.72;5000152;28;20201;-67
2021/05/14 11:05:25;;;;;;;2.13;1.40;;;;;;;19.60;63.33;96657.16;4975120;28;20248;-67
2021/05/14 11:07:53;;;;;;;1.30;1.20;;;;;;;19.60;63.30;96661.44;4962444;28;20199;-67
2021/05/14 11:10:35;;;;;;;2.50;1.57;;;;;;;19.43;62.20;96633.00;5007972;28;20237;-66
2021/05/14 11:13:33;;;;;;;1.90;1.30;;;;;;;19.59;62.39;96663.09;4992148;28;20265;-66
2021/05/14 11:16:35;;;;;;;4.03;1.30;;;;;;;19.59;62.67;96657.13;4998156;28;20222;-67
2021/05/14 11:19:22;;;;;;;2.37;1.33;;;;;;;19.58;63.27;96656.31;4995274;28;20225;-66
2021/05/14 11:22:13;;;;;;;2.53;1.50;;;;;;;19.58;63.77;96658.84;4995489;28;21015;-66
2021/05/14 11:24:42;;;;;;;2.27;1.50;;;;;;;19.58;64.42;96661.41;5002762;28;20198;-67
2021/05/14 11:27:19;;;;;;;6.13;1.60;;;;;;;19.58;64.65;96656.31;5003221;28;20219;-67
2021/05/14 11:29:53;;;;;;;4.77;1.53;;;;;;;11.92;64.20;95342.38;4995491;28;20672;-67
2021/05/14 11:32:25;;;;;;;4.93;1.70;;;;;;;19.58;64.63;96650.31;5007665;28;20256;-67
2021/05/14 11:35:11;;;;;;;3.20;1.63;;;;;;;19.57;64.71;96651.16;4988691;28;20206;-67
2021/05/14 11:37:39;;;;;;;4.73;1.50;;;;;;;19.36;64.66;96609.91;5003966;28;20258;-67
2021/05/14 11:40:09;;;;;;;6.77;1.90;;;;;;;19.55;65.25;96647.72;4994163;28;20206;-67
2021/05/14 11:42:52;;;;;;;6.80;2.30;;;;;;;19.55;65.48;96646.03;5004220;28;20671;-67
2021/05/14 11:45:26;;;;;;;8.60;2.83;;;;;;;19.40;65.76;96622.75;4989364;28;20651;-67